sensor_id;sensor_type;location;lat;lon;timestamp;P1;durP1;ratioP1;P2;durP2;ratioP2
56321;SDS011;42227;6.376;-10.782;2022-12-29T00:00:59;130.57;;;70.93;;
56321;SDS011;42227;6.376;-10.782;2022-12-29T00:03:28;95.97;;;59.83;;
56321;SDS011;42227;6.376;-10.782;2022-12-29T00:05:57;72.90;;;41.67;;
56321;SDS011;42227;6.376;-10.782;2022-12-29T00:08:25;97.53;;;50.25;;
56321;SDS011;42227;6.376;-10.782;2022-12-29T00:10:54;121.00;;;62.97;;
56321;SDS011;42227;6.376;-10.782;2022-12-29T00:13:22;143.63;;;78.35;;
56321;SDS011;42227;6.376;-10.782;2022-12-29T00:15:51;154.80;;;86.35;;
56321;SDS011;42227;6.376;-10.782;2022-12-29T00:18:19;162.25;;;85.38;;
56321;SDS011;42227;6.376;-10.782;2022-12-29T00:20:47;112.35;;;65.70;;
56321;SDS011;42227;6.376;-10.782;2022-12-29T00:23:15;84.85;;;39.72;;
56321;SDS011;42227;6.376;-10.782;2022-12-29T00:25:44;52.30;;;24.40;;
56321;SDS011;42227;6.376;-10.782;2022-12-29T00:28:13;36.63;;;20.15;;
56321;SDS011;42227;6.376;-10.782;2022-12-29T00:30:43;35.63;;;21.55;;
56321;SDS011;42227;6.376;-10.782;2022-12-29T00:33:13;48.75;;;23.02;;
56321;SDS011;42227;6.376;-10.782;2022-12-29T00:35:46;85.57;;;44.05;;
56321;SDS011;42227;6.376;-10.782;2022-12-29T00:38:19;131.95;;;61.17;;
56321;SDS011;42227;6.376;-10.782;2022-12-29T00:40:49;137.07;;;72.40;;
56321;SDS011;42227;6.376;-10.782;2022-12-29T00:43:17;109.47;;;63.85;;
56321;SDS011;42227;6.376;-10.782;2022-12-29T00:45:48;65.70;;;42.55;;
56321;SDS011;42227;6.376;-10.782;2022-12-29T00:48:16;50.45;;;23.10;;
56321;SDS011;42227;6.376;-10.782;2022-12-29T00:50:45;40.38;;;22.15;;
56321;SDS011;42227;6.376;-10.782;2022-12-29T00:53:13;56.22;;;26.73;;
56321;SDS011;42227;6.376;-10.782;2022-12-29T00:55:43;51.25;;;29.83;;
56321;SDS011;42227;6.376;-10.782;2022-12-29T00:58:12;58.55;;;28.33;;
56321;SDS011;42227;6.376;-10.782;2022-12-29T01:00:40;67.03;;;32.63;;
56321;SDS011;42227;6.376;-10.782;2022-12-29T01:03:08;56.90;;;33.00;;
56321;SDS011;42227;6.376;-10.782;2022-12-29T01:05:37;52.05;;;32.15;;
56321;SDS011;42227;6.376;-10.782;2022-12-29T01:08:07;63.15;;;33.97;;
56321;SDS011;42227;6.376;-10.782;2022-12-29T01:10:35;61.03;;;31.77;;
56321;SDS011;42227;6.376;-10.782;2022-12-29T01:13:03;77.55;;;41.20;;
56321;SDS011;42227;6.376;-10.782;2022-12-29T01:15:31;88.72;;;53.88;;
56321;SDS011;42227;6.376;-10.782;2022-12-29T01:18:00;144.15;;;75.88;;
56321;SDS011;42227;6.376;-10.782;2022-12-29T01:20:29;120.25;;;64.40;;
56321;SDS011;42227;6.376;-10.782;2022-12-29T01:22:57;71.28;;;37.47;;
56321;SDS011;42227;6.376;-10.782;2022-12-29T01:25:26;57.35;;;30.70;;
56321;SDS011;42227;6.376;-10.782;2022-12-29T01:27:55;58.47;;;23.48;;
56321;SDS011;42227;6.376;-10.782;2022-12-29T01:30:25;47.63;;;23.65;;
56321;SDS011;42227;6.376;-10.782;2022-12-29T01:32:53;38.75;;;20.58;;
56321;SDS011;42227;6.376;-10.782;2022-12-29T01:35:21;32.97;;;21.85;;
56321;SDS011;42227;6.376;-10.782;2022-12-29T01:37:50;69.78;;;37.13;;
56321;SDS011;42227;6.376;-10.782;2022-12-29T01:40:19;70.32;;;36.90;;
56321;SDS011;42227;6.376;-10.782;2022-12-29T01:42:48;87.95;;;46.42;;
56321;SDS011;42227;6.376;-10.782;2022-12-29T01:45:17;75.40;;;47.85;;
56321;SDS011;42227;6.376;-10.782;2022-12-29T01:47:50;77.60;;;48.58;;
56321;SDS011;42227;6.376;-10.782;2022-12-29T01:50:26;47.92;;;28.75;;
56321;SDS011;42227;6.376;-10.782;2022-12-29T01:55:33;74.63;;;45.00;;
56321;SDS011;42227;6.376;-10.782;2022-12-29T01:58:07;67.20;;;41.75;;
56321;SDS011;42227;6.376;-10.782;2022-12-29T02:00:39;63.38;;;36.10;;
56321;SDS011;42227;6.376;-10.782;2022-12-29T02:03:07;79.05;;;41.05;;
56321;SDS011;42227;6.376;-10.782;2022-12-29T02:08:11;64.28;;;37.60;;
56321;SDS011;42227;6.376;-10.782;2022-12-29T02:10:41;73.15;;;38.65;;
56321;SDS011;42227;6.376;-10.782;2022-12-29T02:13:14;71.57;;;34.92;;
56321;SDS011;42227;6.376;-10.782;2022-12-29T02:33:33;43.78;;;29.02;;
56321;SDS011;42227;6.376;-10.782;2022-12-29T02:42:14;57.10;;;30.92;;
56321;SDS011;42227;6.376;-10.782;2022-12-29T02:45:05;52.65;;;31.85;;
56321;SDS011;42227;6.376;-10.782;2022-12-29T02:48:10;60.78;;;36.65;;
56321;SDS011;42227;6.376;-10.782;2022-12-29T02:51:00;55.58;;;36.92;;
56321;SDS011;42227;6.376;-10.782;2022-12-29T02:53:32;49.87;;;35.93;;
56321;SDS011;42227;6.376;-10.782;2022-12-29T02:56:02;61.72;;;32.50;;
56321;SDS011;42227;6.376;-10.782;2022-12-29T02:58:30;52.47;;;29.45;;
56321;SDS011;42227;6.376;-10.782;2022-12-29T03:11:52;77.00;;;42.60;;
56321;SDS011;42227;6.376;-10.782;2022-12-29T03:14:32;41.08;;;29.60;;
56321;SDS011;42227;6.376;-10.782;2022-12-29T03:17:08;51.85;;;31.50;;
56321;SDS011;42227;6.376;-10.782;2022-12-29T03:19:46;44.10;;;30.52;;
56321;SDS011;42227;6.376;-10.782;2022-12-29T03:22:19;49.65;;;32.88;;
56321;SDS011;42227;6.376;-10.782;2022-12-29T03:28:01;57.08;;;34.45;;
56321;SDS011;42227;6.376;-10.782;2022-12-29T03:30:40;63.42;;;40.10;;
56321;SDS011;42227;6.376;-10.782;2022-12-29T03:33:13;67.78;;;44.00;;
56321;SDS011;42227;6.376;-10.782;2022-12-29T03:35:47;91.60;;;53.63;;
56321;SDS011;42227;6.376;-10.782;2022-12-29T03:38:23;96.97;;;56.88;;
56321;SDS011;42227;6.376;-10.782;2022-12-29T03:40:52;102.30;;;57.40;;
56321;SDS011;42227;6.376;-10.782;2022-12-29T03:43:27;126.35;;;64.15;;
56321;SDS011;42227;6.376;-10.782;2022-12-29T03:45:57;113.38;;;55.97;;
56321;SDS011;42227;6.376;-10.782;2022-12-29T03:48:25;49.30;;;31.67;;
56321;SDS011;42227;6.376;-10.782;2022-12-29T03:50:55;43.42;;;32.70;;
56321;SDS011;42227;6.376;-10.782;2022-12-29T03:53:24;56.25;;;31.45;;
56321;SDS011;42227;6.376;-10.782;2022-12-29T03:55:52;42.83;;;30.35;;
56321;SDS011;42227;6.376;-10.782;2022-12-29T03:58:21;62.17;;;33.42;;
56321;SDS011;42227;6.376;-10.782;2022-12-29T04:00:59;60.88;;;37.55;;
56321;SDS011;42227;6.376;-10.782;2022-12-29T04:03:31;48.33;;;33.45;;
56321;SDS011;42227;6.376;-10.782;2022-12-29T04:06:00;53.03;;;32.83;;
56321;SDS011;42227;6.376;-10.782;2022-12-29T04:08:36;55.20;;;31.02;;
56321;SDS011;42227;6.376;-10.782;2022-12-29T04:11:05;48.75;;;30.85;;
56321;SDS011;42227;6.376;-10.782;2022-12-29T04:13:33;45.92;;;30.65;;
56321;SDS011;42227;6.376;-10.782;2022-12-29T04:16:01;64.53;;;31.00;;
56321;SDS011;42227;6.376;-10.782;2022-12-29T04:18:31;48.65;;;31.88;;
56321;SDS011;42227;6.376;-10.782;2022-12-29T04:21:00;45.70;;;29.70;;
56321;SDS011;42227;6.376;-10.782;2022-12-29T04:23:30;40.15;;;31.08;;
56321;SDS011;42227;6.376;-10.782;2022-12-29T04:26:02;59.13;;;32.38;;
56321;SDS011;42227;6.376;-10.782;2022-12-29T04:28:32;47.30;;;31.55;;
56321;SDS011;42227;6.376;-10.782;2022-12-29T04:31:35;51.92;;;31.75;;
56321;SDS011;42227;6.376;-10.782;2022-12-29T04:34:05;48.88;;;29.85;;
56321;SDS011;42227;6.376;-10.782;2022-12-29T04:36:34;45.50;;;28.95;;
56321;SDS011;42227;6.376;-10.782;2022-12-29T04:39:02;49.13;;;29.98;;
56321;SDS011;42227;6.376;-10.782;2022-12-29T04:41:32;61.85;;;31.83;;
56321;SDS011;42227;6.376;-10.782;2022-12-29T04:44:01;54.50;;;32.17;;
56321;SDS011;42227;6.376;-10.782;2022-12-29T04:46:37;52.15;;;32.90;;
56321;SDS011;42227;6.376;-10.782;2022-12-29T04:49:09;56.58;;;31.48;;
56321;SDS011;42227;6.376;-10.782;2022-12-29T04:52:12;46.50;;;31.80;;
56321;SDS011;42227;6.376;-10.782;2022-12-29T04:54:43;46.88;;;33.25;;
56321;SDS011;42227;6.376;-10.782;2022-12-29T04:57:16;55.53;;;35.80;;
56321;SDS011;42227;6.376;-10.782;2022-12-29T04:59:50;68.90;;;38.42;;
56321;SDS011;42227;6.376;-10.782;2022-12-29T05:02:19;57.90;;;36.10;;
56321;SDS011;42227;6.376;-10.782;2022-12-29T05:04:49;67.38;;;34.50;;
56321;SDS011;42227;6.376;-10.782;2022-12-29T05:07:18;56.17;;;33.70;;
56321;SDS011;42227;6.376;-10.782;2022-12-29T05:09:48;57.17;;;33.92;;
56321;SDS011;42227;6.376;-10.782;2022-12-29T05:12:16;54.35;;;34.60;;
56321;SDS011;42227;6.376;-10.782;2022-12-29T05:14:58;56.95;;;37.88;;
56321;SDS011;42227;6.376;-10.782;2022-12-29T05:17:27;56.60;;;36.00;;
56321;SDS011;42227;6.376;-10.782;2022-12-29T05:19:55;67.32;;;36.72;;
56321;SDS011;42227;6.376;-10.782;2022-12-29T05:22:24;53.40;;;37.13;;
56321;SDS011;42227;6.376;-10.782;2022-12-29T05:24:54;59.13;;;36.25;;
56321;SDS011;42227;6.376;-10.782;2022-12-29T05:27:23;61.45;;;37.20;;
56321;SDS011;42227;6.376;-10.782;2022-12-29T05:30:01;60.05;;;38.83;;
56321;SDS011;42227;6.376;-10.782;2022-12-29T05:32:29;54.80;;;37.75;;
56321;SDS011;42227;6.376;-10.782;2022-12-29T05:34:59;54.88;;;31.23;;
56321;SDS011;42227;6.376;-10.782;2022-12-29T05:37:28;46.78;;;27.23;;
56321;SDS011;42227;6.376;-10.782;2022-12-29T05:39:56;50.42;;;30.67;;
56321;SDS011;42227;6.376;-10.782;2022-12-29T05:42:24;46.63;;;31.00;;
56321;SDS011;42227;6.376;-10.782;2022-12-29T05:45:13;47.92;;;29.20;;
56321;SDS011;42227;6.376;-10.782;2022-12-29T05:48:02;46.70;;;31.58;;
56321;SDS011;42227;6.376;-10.782;2022-12-29T05:50:51;54.80;;;34.97;;
56321;SDS011;42227;6.376;-10.782;2022-12-29T05:53:24;51.70;;;29.75;;
56321;SDS011;42227;6.376;-10.782;2022-12-29T05:55:52;38.58;;;21.88;;
56321;SDS011;42227;6.376;-10.782;2022-12-29T05:58:20;33.88;;;20.35;;
56321;SDS011;42227;6.376;-10.782;2022-12-29T06:00:50;38.58;;;19.67;;
56321;SDS011;42227;6.376;-10.782;2022-12-29T06:03:19;29.30;;;20.63;;
56321;SDS011;42227;6.376;-10.782;2022-12-29T06:05:47;27.67;;;16.85;;
56321;SDS011;42227;6.376;-10.782;2022-12-29T06:08:16;26.25;;;17.65;;
56321;SDS011;42227;6.376;-10.782;2022-12-29T06:10:44;30.17;;;17.38;;
56321;SDS011;42227;6.376;-10.782;2022-12-29T06:13:13;31.35;;;17.25;;
56321;SDS011;42227;6.376;-10.782;2022-12-29T06:15:43;29.23;;;19.75;;
56321;SDS011;42227;6.376;-10.782;2022-12-29T06:18:12;28.70;;;18.13;;
56321;SDS011;42227;6.376;-10.782;2022-12-29T06:20:46;38.65;;;20.05;;
56321;SDS011;42227;6.376;-10.782;2022-12-29T06:23:17;37.55;;;23.80;;
56321;SDS011;42227;6.376;-10.782;2022-12-29T06:25:46;36.58;;;19.60;;
56321;SDS011;42227;6.376;-10.782;2022-12-29T06:28:15;30.15;;;20.08;;
56321;SDS011;42227;6.376;-10.782;2022-12-29T06:30:44;28.92;;;18.73;;
56321;SDS011;42227;6.376;-10.782;2022-12-29T06:33:13;34.55;;;19.35;;
56321;SDS011;42227;6.376;-10.782;2022-12-29T06:35:43;38.45;;;20.38;;
56321;SDS011;42227;6.376;-10.782;2022-12-29T06:38:13;31.15;;;21.05;;
56321;SDS011;42227;6.376;-10.782;2022-12-29T06:40:42;28.30;;;18.92;;
56321;SDS011;42227;6.376;-10.782;2022-12-29T06:43:29;41.95;;;19.00;;
56321;SDS011;42227;6.376;-10.782;2022-12-29T06:46:07;35.90;;;20.80;;
56321;SDS011;42227;6.376;-10.782;2022-12-29T06:48:35;25.13;;;19.20;;
56321;SDS011;42227;6.376;-10.782;2022-12-29T06:51:04;36.70;;;24.02;;
56321;SDS011;42227;6.376;-10.782;2022-12-29T06:53:32;39.20;;;25.20;;
56321;SDS011;42227;6.376;-10.782;2022-12-29T06:56:00;40.83;;;25.55;;
56321;SDS011;42227;6.376;-10.782;2022-12-29T06:58:28;40.92;;;27.17;;
56321;SDS011;42227;6.376;-10.782;2022-12-29T07:00:57;44.92;;;25.95;;
56321;SDS011;42227;6.376;-10.782;2022-12-29T07:03:25;50.60;;;26.15;;
56321;SDS011;42227;6.376;-10.782;2022-12-29T07:05:54;40.45;;;32.85;;
56321;SDS011;42227;6.376;-10.782;2022-12-29T07:08:22;46.63;;;30.60;;
56321;SDS011;42227;6.376;-10.782;2022-12-29T07:10:50;66.10;;;32.38;;
56321;SDS011;42227;6.376;-10.782;2022-12-29T07:13:19;47.45;;;26.77;;
56321;SDS011;42227;6.376;-10.782;2022-12-29T07:15:47;60.03;;;36.83;;
56321;SDS011;42227;6.376;-10.782;2022-12-29T07:18:15;39.60;;;31.70;;
56321;SDS011;42227;6.376;-10.782;2022-12-29T07:20:44;40.80;;;29.95;;
56321;SDS011;42227;6.376;-10.782;2022-12-29T07:23:12;31.73;;;22.08;;
56321;SDS011;42227;6.376;-10.782;2022-12-29T07:25:40;37.05;;;23.55;;
56321;SDS011;42227;6.376;-10.782;2022-12-29T07:28:08;28.35;;;22.85;;
56321;SDS011;42227;6.376;-10.782;2022-12-29T07:30:37;32.40;;;24.27;;
56321;SDS011;42227;6.376;-10.782;2022-12-29T07:33:05;37.92;;;27.55;;
56321;SDS011;42227;6.376;-10.782;2022-12-29T07:35:34;35.72;;;29.92;;
56321;SDS011;42227;6.376;-10.782;2022-12-29T07:38:02;45.92;;;27.25;;
56321;SDS011;42227;6.376;-10.782;2022-12-29T07:40:30;28.05;;;20.80;;
56321;SDS011;42227;6.376;-10.782;2022-12-29T07:42:59;39.05;;;19.88;;
56321;SDS011;42227;6.376;-10.782;2022-12-29T07:45:37;38.28;;;25.17;;
56321;SDS011;42227;6.376;-10.782;2022-12-29T07:48:09;43.22;;;24.30;;
56321;SDS011;42227;6.376;-10.782;2022-12-29T07:50:37;28.33;;;23.27;;
56321;SDS011;42227;6.376;-10.782;2022-12-29T07:53:05;50.28;;;28.95;;
56321;SDS011;42227;6.376;-10.782;2022-12-29T07:55:34;55.38;;;37.90;;
56321;SDS011;42227;6.376;-10.782;2022-12-29T07:58:02;50.78;;;32.10;;
56321;SDS011;42227;6.376;-10.782;2022-12-29T08:00:30;58.30;;;36.08;;
56321;SDS011;42227;6.376;-10.782;2022-12-29T08:02:59;76.90;;;58.50;;
56321;SDS011;42227;6.376;-10.782;2022-12-29T08:05:28;57.95;;;40.88;;
56321;SDS011;42227;6.376;-10.782;2022-12-29T08:07:57;48.53;;;34.28;;
56321;SDS011;42227;6.376;-10.782;2022-12-29T08:10:25;29.58;;;23.60;;
56321;SDS011;42227;6.376;-10.782;2022-12-29T08:12:54;26.50;;;19.98;;
56321;SDS011;42227;6.376;-10.782;2022-12-29T08:15:22;47.45;;;30.65;;
56321;SDS011;42227;6.376;-10.782;2022-12-29T08:17:58;37.28;;;27.15;;
56321;SDS011;42227;6.376;-10.782;2022-12-29T08:20:26;32.88;;;21.73;;
56321;SDS011;42227;6.376;-10.782;2022-12-29T08:22:54;27.33;;;21.23;;
56321;SDS011;42227;6.376;-10.782;2022-12-29T08:25:23;25.25;;;18.77;;
56321;SDS011;42227;6.376;-10.782;2022-12-29T08:27:51;27.42;;;18.20;;
56321;SDS011;42227;6.376;-10.782;2022-12-29T08:30:19;24.50;;;17.83;;
56321;SDS011;42227;6.376;-10.782;2022-12-29T08:32:48;59.33;;;20.58;;
56321;SDS011;42227;6.376;-10.782;2022-12-29T08:35:16;54.88;;;23.42;;
56321;SDS011;42227;6.376;-10.782;2022-12-29T08:37:44;41.65;;;21.02;;
56321;SDS011;42227;6.376;-10.782;2022-12-29T08:40:12;36.42;;;22.35;;
56321;SDS011;42227;6.376;-10.782;2022-12-29T08:42:41;49.28;;;22.52;;
56321;SDS011;42227;6.376;-10.782;2022-12-29T08:45:10;33.45;;;21.02;;
56321;SDS011;42227;6.376;-10.782;2022-12-29T08:47:39;49.33;;;26.30;;
56321;SDS011;42227;6.376;-10.782;2022-12-29T08:50:07;47.72;;;24.80;;
56321;SDS011;42227;6.376;-10.782;2022-12-29T08:52:35;56.80;;;34.25;;
56321;SDS011;42227;6.376;-10.782;2022-12-29T08:55:04;54.33;;;19.60;;
56321;SDS011;42227;6.376;-10.782;2022-12-29T08:57:32;28.92;;;20.75;;
56321;SDS011;42227;6.376;-10.782;2022-12-29T09:00:06;42.95;;;17.50;;
56321;SDS011;42227;6.376;-10.782;2022-12-29T09:02:35;29.15;;;17.42;;
56321;SDS011;42227;6.376;-10.782;2022-12-29T09:07:52;34.63;;;19.42;;
56321;SDS011;42227;6.376;-10.782;2022-12-29T09:10:21;39.75;;;17.77;;
56321;SDS011;42227;6.376;-10.782;2022-12-29T09:12:49;25.67;;;17.30;;
56321;SDS011;42227;6.376;-10.782;2022-12-29T09:15:17;26.63;;;16.35;;
56321;SDS011;42227;6.376;-10.782;2022-12-29T09:17:46;36.75;;;20.25;;
56321;SDS011;42227;6.376;-10.782;2022-12-29T09:20:17;25.58;;;18.70;;
56321;SDS011;42227;6.376;-10.782;2022-12-29T09:22:47;27.13;;;16.88;;
56321;SDS011;42227;6.376;-10.782;2022-12-29T09:25:15;35.88;;;17.95;;
56321;SDS011;42227;6.376;-10.782;2022-12-29T09:27:43;27.45;;;16.20;;
56321;SDS011;42227;6.376;-10.782;2022-12-29T09:30:12;32.10;;;18.05;;
56321;SDS011;42227;6.376;-10.782;2022-12-29T09:32:40;29.02;;;16.45;;
56321;SDS011;42227;6.376;-10.782;2022-12-29T09:35:12;66.38;;;30.13;;
56321;SDS011;42227;6.376;-10.782;2022-12-29T09:37:42;39.20;;;20.00;;
56321;SDS011;42227;6.376;-10.782;2022-12-29T09:40:32;36.83;;;19.15;;
56321;SDS011;42227;6.376;-10.782;2022-12-29T09:46:06;22.63;;;15.43;;
56321;SDS011;42227;6.376;-10.782;2022-12-29T09:48:41;37.65;;;15.93;;
56321;SDS011;42227;6.376;-10.782;2022-12-29T09:51:16;38.10;;;15.15;;
56321;SDS011;42227;6.376;-10.782;2022-12-29T09:56:59;34.67;;;14.68;;
56321;SDS011;42227;6.376;-10.782;2022-12-29T09:59:34;28.42;;;14.00;;
56321;SDS011;42227;6.376;-10.782;2022-12-29T10:04:57;53.63;;;36.00;;
56321;SDS011;42227;6.376;-10.782;2022-12-29T10:07:28;32.72;;;17.70;;
56321;SDS011;42227;6.376;-10.782;2022-12-29T10:16:15;39.30;;;20.70;;
56321;SDS011;42227;6.376;-10.782;2022-12-29T10:21:56;41.13;;;25.40;;
56321;SDS011;42227;6.376;-10.782;2022-12-29T10:24:34;27.35;;;20.77;;
56321;SDS011;42227;6.376;-10.782;2022-12-29T10:27:10;30.17;;;17.25;;
56321;SDS011;42227;6.376;-10.782;2022-12-29T10:29:43;33.63;;;19.42;;
56321;SDS011;42227;6.376;-10.782;2022-12-29T10:34:56;34.10;;;15.30;;
56321;SDS011;42227;6.376;-10.782;2022-12-29T10:37:32;23.42;;;15.50;;
56321;SDS011;42227;6.376;-10.782;2022-12-29T10:40:19;35.75;;;15.93;;
56321;SDS011;42227;6.376;-10.782;2022-12-29T10:42:57;22.88;;;14.80;;
56321;SDS011;42227;6.376;-10.782;2022-12-29T10:45:28;21.88;;;12.75;;
56321;SDS011;42227;6.376;-10.782;2022-12-29T10:48:02;78.07;;;28.70;;
56321;SDS011;42227;6.376;-10.782;2022-12-29T10:50:43;29.42;;;15.82;;
56321;SDS011;42227;6.376;-10.782;2022-12-29T10:53:15;35.97;;;16.33;;
56321;SDS011;42227;6.376;-10.782;2022-12-29T10:55:48;20.10;;;13.88;;
56321;SDS011;42227;6.376;-10.782;2022-12-29T10:58:17;24.15;;;14.27;;
56321;SDS011;42227;6.376;-10.782;2022-12-29T11:00:50;28.48;;;13.43;;
56321;SDS011;42227;6.376;-10.782;2022-12-29T11:08:53;21.15;;;14.13;;
56321;SDS011;42227;6.376;-10.782;2022-12-29T11:11:28;24.90;;;14.85;;
56321;SDS011;42227;6.376;-10.782;2022-12-29T11:14:12;25.00;;;16.83;;
56321;SDS011;42227;6.376;-10.782;2022-12-29T11:16:59;36.55;;;16.85;;
56321;SDS011;42227;6.376;-10.782;2022-12-29T11:19:30;23.67;;;14.25;;
56321;SDS011;42227;6.376;-10.782;2022-12-29T11:24:50;24.17;;;15.35;;
56321;SDS011;42227;6.376;-10.782;2022-12-29T11:27:24;22.48;;;14.00;;
56321;SDS011;42227;6.376;-10.782;2022-12-29T11:29:54;28.98;;;12.65;;
56321;SDS011;42227;6.376;-10.782;2022-12-29T11:32:23;21.90;;;13.38;;
56321;SDS011;42227;6.376;-10.782;2022-12-29T11:34:56;39.17;;;16.40;;
56321;SDS011;42227;6.376;-10.782;2022-12-29T11:37:38;25.70;;;14.45;;
56321;SDS011;42227;6.376;-10.782;2022-12-29T11:42:52;26.27;;;12.38;;
56321;SDS011;42227;6.376;-10.782;2022-12-29T11:45:26;22.30;;;12.15;;
56321;SDS011;42227;6.376;-10.782;2022-12-29T11:48:08;28.50;;;14.52;;
56321;SDS011;42227;6.376;-10.782;2022-12-29T11:50:48;29.30;;;14.73;;
56321;SDS011;42227;6.376;-10.782;2022-12-29T11:56:14;23.08;;;12.93;;
56321;SDS011;42227;6.376;-10.782;2022-12-29T12:01:56;31.27;;;13.90;;
56321;SDS011;42227;6.376;-10.782;2022-12-29T12:04:27;22.08;;;12.63;;
56321;SDS011;42227;6.376;-10.782;2022-12-29T12:07:11;39.20;;;14.20;;
56321;SDS011;42227;6.376;-10.782;2022-12-29T12:09:51;24.13;;;13.77;;
56321;SDS011;42227;6.376;-10.782;2022-12-29T12:12:35;29.33;;;13.98;;
56321;SDS011;42227;6.376;-10.782;2022-12-29T12:15:12;30.35;;;13.15;;
56321;SDS011;42227;6.376;-10.782;2022-12-29T12:17:55;25.50;;;14.73;;
56321;SDS011;42227;6.376;-10.782;2022-12-29T12:26:18;31.67;;;16.27;;
56321;SDS011;42227;6.376;-10.782;2022-12-29T12:28:59;26.63;;;16.53;;
56321;SDS011;42227;6.376;-10.782;2022-12-29T12:31:46;31.98;;;13.95;;
56321;SDS011;42227;6.376;-10.782;2022-12-29T12:34:31;33.50;;;14.85;;
56321;SDS011;42227;6.376;-10.782;2022-12-29T12:40:33;37.78;;;25.33;;
56321;SDS011;42227;6.376;-10.782;2022-12-29T12:42:47;18.52;;;14.65;;
56321;SDS011;42227;6.376;-10.782;2022-12-29T13:00:04;54.28;;;26.23;;
56321;SDS011;42227;6.376;-10.782;2022-12-29T13:02:50;29.10;;;17.77;;
56321;SDS011;42227;6.376;-10.782;2022-12-29T13:17:09;20.80;;;13.55;;
56321;SDS011;42227;6.376;-10.782;2022-12-29T13:22:47;42.25;;;15.32;;
56321;SDS011;42227;6.376;-10.782;2022-12-29T13:25:49;34.10;;;18.50;;
56321;SDS011;42227;6.376;-10.782;2022-12-29T13:31:24;24.90;;;14.73;;
56321;SDS011;42227;6.376;-10.782;2022-12-29T13:36:45;24.65;;;13.30;;
56321;SDS011;42227;6.376;-10.782;2022-12-29T13:39:37;32.40;;;14.80;;
56321;SDS011;42227;6.376;-10.782;2022-12-29T13:42:10;33.78;;;18.60;;
56321;SDS011;42227;6.376;-10.782;2022-12-29T13:49:58;37.15;;;16.70;;
56321;SDS011;42227;6.376;-10.782;2022-12-29T13:55:39;20.92;;;12.73;;
56321;SDS011;42227;6.376;-10.782;2022-12-29T14:04:12;32.75;;;17.15;;
56321;SDS011;42227;6.376;-10.782;2022-12-29T14:06:42;30.48;;;16.67;;
56321;SDS011;42227;6.376;-10.782;2022-12-29T14:12:01;30.73;;;18.02;;
56321;SDS011;42227;6.376;-10.782;2022-12-29T14:17:44;24.95;;;14.50;;
56321;SDS011;42227;6.376;-10.782;2022-12-29T14:20:30;34.78;;;15.60;;
56321;SDS011;42227;6.376;-10.782;2022-12-29T14:23:00;42.65;;;16.80;;
56321;SDS011;42227;6.376;-10.782;2022-12-29T14:28:34;29.67;;;19.52;;
56321;SDS011;42227;6.376;-10.782;2022-12-29T14:34:28;31.83;;;17.08;;
56321;SDS011;42227;6.376;-10.782;2022-12-29T14:36:37;17.97;;;12.90;;
56321;SDS011;42227;6.376;-10.782;2022-12-29T14:44:58;19.90;;;15.20;;
56321;SDS011;42227;6.376;-10.782;2022-12-29T14:47:50;31.00;;;14.00;;
56321;SDS011;42227;6.376;-10.782;2022-12-29T14:50:24;16.88;;;10.35;;
56321;SDS011;42227;6.376;-10.782;2022-12-29T14:53:04;31.50;;;14.27;;
56321;SDS011;42227;6.376;-10.782;2022-12-29T14:55:38;22.38;;;12.50;;
56321;SDS011;42227;6.376;-10.782;2022-12-29T14:58:28;22.38;;;13.15;;
56321;SDS011;42227;6.376;-10.782;2022-12-29T15:01:43;33.92;;;15.82;;
56321;SDS011;42227;6.376;-10.782;2022-12-29T15:07:07;70.55;;;44.53;;
56321;SDS011;42227;6.376;-10.782;2022-12-29T15:14:53;207.07;;;125.63;;
56321;SDS011;42227;6.376;-10.782;2022-12-29T15:19:59;125.65;;;70.13;;
56321;SDS011;42227;6.376;-10.782;2022-12-29T15:22:44;169.27;;;114.82;;
56321;SDS011;42227;6.376;-10.782;2022-12-29T15:25:15;123.80;;;63.72;;
56321;SDS011;42227;6.376;-10.782;2022-12-29T15:27:51;85.75;;;46.70;;
56321;SDS011;42227;6.376;-10.782;2022-12-29T15:30:21;103.97;;;62.10;;
56321;SDS011;42227;6.376;-10.782;2022-12-29T15:32:49;72.35;;;35.50;;
56321;SDS011;42227;6.376;-10.782;2022-12-29T15:35:36;30.92;;;19.00;;
56321;SDS011;42227;6.376;-10.782;2022-12-29T15:38:15;36.17;;;15.93;;
56321;SDS011;42227;6.376;-10.782;2022-12-29T15:41:00;37.67;;;14.20;;
56321;SDS011;42227;6.376;-10.782;2022-12-29T15:43:38;60.28;;;26.98;;
56321;SDS011;42227;6.376;-10.782;2022-12-29T15:46:17;69.75;;;34.97;;
56321;SDS011;42227;6.376;-10.782;2022-12-29T15:48:46;74.78;;;52.47;;
56321;SDS011;42227;6.376;-10.782;2022-12-29T15:51:35;48.70;;;25.63;;
56321;SDS011;42227;6.376;-10.782;2022-12-29T15:54:06;129.05;;;76.68;;
56321;SDS011;42227;6.376;-10.782;2022-12-29T15:56:44;83.88;;;49.53;;
56321;SDS011;42227;6.376;-10.782;2022-12-29T15:59:32;44.15;;;25.23;;
56321;SDS011;42227;6.376;-10.782;2022-12-29T16:02:01;105.15;;;64.65;;
56321;SDS011;42227;6.376;-10.782;2022-12-29T16:04:37;118.47;;;64.20;;
56321;SDS011;42227;6.376;-10.782;2022-12-29T16:07:29;36.63;;;20.33;;
56321;SDS011;42227;6.376;-10.782;2022-12-29T16:10:21;26.05;;;16.38;;
56321;SDS011;42227;6.376;-10.782;2022-12-29T16:12:53;50.28;;;22.70;;
56321;SDS011;42227;6.376;-10.782;2022-12-29T16:15:21;34.40;;;22.80;;
56321;SDS011;42227;6.376;-10.782;2022-12-29T16:17:50;42.42;;;21.83;;
56321;SDS011;42227;6.376;-10.782;2022-12-29T16:20:21;59.25;;;28.45;;
56321;SDS011;42227;6.376;-10.782;2022-12-29T16:22:56;70.13;;;29.25;;
56321;SDS011;42227;6.376;-10.782;2022-12-29T16:25:32;89.05;;;58.42;;
56321;SDS011;42227;6.376;-10.782;2022-12-29T16:28:02;111.20;;;54.85;;
56321;SDS011;42227;6.376;-10.782;2022-12-29T16:30:47;76.75;;;38.10;;
56321;SDS011;42227;6.376;-10.782;2022-12-29T16:34:09;77.35;;;42.20;;
56321;SDS011;42227;6.376;-10.782;2022-12-29T16:36:38;106.57;;;65.38;;
56321;SDS011;42227;6.376;-10.782;2022-12-29T16:48:32;40.28;;;15.07;;
56321;SDS011;42227;6.376;-10.782;2022-12-29T16:50:35;82.95;;;39.38;;
56321;SDS011;42227;6.376;-10.782;2022-12-29T16:53:05;51.60;;;23.92;;
56321;SDS011;42227;6.376;-10.782;2022-12-29T16:55:53;70.95;;;22.88;;
56321;SDS011;42227;6.376;-10.782;2022-12-29T16:58:25;50.53;;;26.27;;
56321;SDS011;42227;6.376;-10.782;2022-12-29T17:00:55;29.30;;;18.10;;
56321;SDS011;42227;6.376;-10.782;2022-12-29T17:03:39;40.10;;;24.08;;
56321;SDS011;42227;6.376;-10.782;2022-12-29T17:06:14;46.50;;;22.30;;
56321;SDS011;42227;6.376;-10.782;2022-12-29T17:08:44;38.83;;;20.58;;
56321;SDS011;42227;6.376;-10.782;2022-12-29T17:11:24;71.38;;;30.33;;
56321;SDS011;42227;6.376;-10.782;2022-12-29T17:13:54;56.45;;;31.77;;
56321;SDS011;42227;6.376;-10.782;2022-12-29T17:16:22;54.38;;;29.55;;
56321;SDS011;42227;6.376;-10.782;2022-12-29T17:18:50;31.73;;;17.63;;
56321;SDS011;42227;6.376;-10.782;2022-12-29T17:21:19;31.48;;;15.90;;
56321;SDS011;42227;6.376;-10.782;2022-12-29T17:23:47;43.03;;;20.85;;
56321;SDS011;42227;6.376;-10.782;2022-12-29T17:26:15;47.97;;;25.77;;
56321;SDS011;42227;6.376;-10.782;2022-12-29T17:28:44;23.15;;;15.23;;
56321;SDS011;42227;6.376;-10.782;2022-12-29T17:31:13;26.92;;;15.80;;
56321;SDS011;42227;6.376;-10.782;2022-12-29T17:33:41;38.28;;;18.88;;
56321;SDS011;42227;6.376;-10.782;2022-12-29T17:36:11;59.05;;;38.38;;
56321;SDS011;42227;6.376;-10.782;2022-12-29T17:38:39;36.83;;;22.17;;
56321;SDS011;42227;6.376;-10.782;2022-12-29T17:41:10;41.90;;;21.95;;